Terminal Aerodrome Forecast
Issued by NWS

Current Version | Previous Version | Text Only | Print | Product List | Glossary On
Versions: 1 2 3 4 5 6 7 8 9 10 11 12 13 14 15 16 17 18 19 20 21 22 23 24 25 26 27 28 29 30 31 32 33 34 35
000
FTAK31 PANC 282335
TAFADU
TAF
PADU 282335Z 2900/2924 10006KT P6SM SCT030 BKN060
     FM290800 16006KT P6SM -SHRA BKN025 OVC040
     FM291500 20004KT P6SM -RA SCT015 BKN025=

USA.gov is the U.S. government's official web portal to all federal, state and local government web resources and services.